Empire State — WDE4431 — position and weather

sailwx.info

Track history (hours):
 
Tides and Currents Weather Stations Pressure Air Temp Water Temp Dewpoint Dewpoint Depression Visibility Wind Speed Wind Dir Waves Ship Positions

Empire State

Owner: Crowley Petroleum Services, Jacksonville, FL. More information available from US FCC via Universal Licensing System and Coast Guard Vessel Documentation Center.

Last reported at 2017-Feb-22 03:33 UTC. Time now 2017-Feb-23 18:40 UTC.
Position N 33°38' W 118°20'.

Length 183 m; draft 8.8 m.

Type: Military. MMSI: 367353080.

Date/timePositionNaut miles runAvg speedWind from/ knotsBaromVisibWave heightAir tempDewpointWater temp
2017-Feb-22 03:33N 33°38' W 118°20'8 8.4
2017-Feb-22 02:34N 33°42' W 118°11'2 1.1
2017-Feb-22 00:32N 33°44' W 118°13'0 0.1
2017-Feb-21 23:32N 33°44' W 118°13'0 0.1
2017-Feb-21 22:32N 33°44' W 118°13'0 0.0
2017-Feb-21 21:32N 33°44' W 118°13'0 0.0
2017-Feb-21 20:26N 33°44' W 118°13'0 0.1
2017-Feb-21 19:32N 33°44' W 118°13'0 0.0
2017-Feb-21 18:32N 33°44' W 118°13'0 0.0
2017-Feb-21 17:32N 33°44' W 118°13'0 0.0
2017-Feb-21 16:32N 33°44' W 118°13'0 0.1
2017-Feb-21 15:11N 33°44' W 118°13'0 0.1
2017-Feb-21 14:32N 33°44' W 118°13'0 0.1
2017-Feb-21 12:32N 33°44' W 118°13'0 0.0
2017-Feb-21 11:32N 33°44' W 118°13'0 0.1
2017-Feb-21 10:26N 33°44' W 118°13'0 0.1
2017-Feb-21 09:32N 33°44' W 118°13'0 0.0
2017-Feb-21 08:32N 33°44' W 118°13'0 0.0
2017-Feb-21 07:14N 33°44' W 118°13'0 0.0
2017-Feb-21 06:20N 33°44' W 118°13'0 0.0
2017-Feb-21 03:08N 33°44' W 118°13'0 0.0
2017-Feb-21 01:32N 33°44' W 118°13'0 0.0
2017-Feb-21 00:14N 33°44' W 118°13'0 0.0
2017-Feb-20 12:20N 33°44' W 118°13'0 0.0
2017-Feb-18 23:08N 33°44' W 118°13'0 0.1
2017-Feb-18 22:08N 33°44' W 118°13'0 0.0
2017-Feb-18 21:14N 33°44' W 118°13'0 0.0
2017-Feb-18 19:32N 33°44' W 118°14'0 0.0
2017-Feb-18 14:32N 33°44' W 118°14'0 0.0
2017-Feb-18 09:14N 33°44' W 118°13'0 0.0
2017-Feb-18 08:32N 33°44' W 118°13'0 0.0
2017-Feb-18 06:14N 33°44' W 118°13'0 0.0
2017-Feb-18 05:32N 33°44' W 118°13'1 0.7
2017-Feb-18 04:33N 33°43' W 118°14'3 0.1
2017-Feb-17 02:25N 33°45' W 118°17'2 2.0
2017-Feb-17 01:33N 33°44' W 118°16'6 6.3
2017-Feb-17 00:33N 33°44' W 118°09'0 0.0
2017-Feb-16 23:31N 33°44' W 118°09'0 0.0
2017-Feb-16 22:28N 33°44' W 118°09'0 0.0
2017-Feb-16 21:31N 33°44' W 118°09'0 0.0
2017-Feb-16 20:28N 33°44' W 118°09'0 0.0
2017-Feb-16 19:25N 33°44' W 118°09'0 0.0
2017-Feb-16 18:28N 33°44' W 118°09'0 0.0
2017-Feb-16 17:31N 33°44' W 118°09'0 0.0
2017-Feb-16 16:31N 33°44' W 118°09'0 0.0
2017-Feb-16 15:31N 33°44' W 118°09'0 0.0
2017-Feb-16 14:31N 33°44' W 118°09'0 0.0
2017-Feb-16 13:31N 33°44' W 118°09'0 0.0
2017-Feb-16 12:31N 33°44' W 118°09'0 0.0
2017-Feb-16 11:31N 33°44' W 118°09'0 0.0
2017-Feb-16 10:25N 33°44' W 118°09'0 0.0
2017-Feb-16 09:31N 33°44' W 118°09'0 0.0
2017-Feb-16 08:31N 33°44' W 118°09'0 0.0
2017-Feb-16 07:31N 33°44' W 118°09'0 0.0
2017-Feb-16 06:31N 33°44' W 118°09'0 0.0
2017-Feb-16 05:31N 33°44' W 118°09'0 0.0
2017-Feb-16 04:31N 33°44' W 118°09'0 0.0
2017-Feb-16 03:31N 33°44' W 118°09'0 0.0
2017-Feb-16 02:31N 33°44' W 118°09'0 0.0
2017-Feb-16 01:31N 33°44' W 118°09'0 0.0
2017-Feb-16 00:31N 33°44' W 118°09'0 0.0
2017-Feb-15 23:31N 33°44' W 118°09'0 0.0
2017-Feb-15 22:31N 33°44' W 118°09'0 0.0
2017-Feb-15 21:31N 33°44' W 118°09'0 0.1
2017-Feb-15 20:31N 33°44' W 118°09'0 0.0
2017-Feb-15 19:25N 33°44' W 118°09'0 0.1
2017-Feb-15 18:28N 33°44' W 118°09'0 0.2
2017-Feb-15 17:31N 33°44' W 118°09'0 0.0
2017-Feb-15 16:31N 33°44' W 118°09'0 0.1
2017-Feb-15 15:31N 33°44' W 118°09'0 0.0
2017-Feb-15 14:31N 33°44' W 118°09'0 0.0
2017-Feb-15 13:31N 33°44' W 118°09'0 0.0
2017-Feb-15 12:31N 33°44' W 118°09'0 0.0
2017-Feb-15 11:31N 33°44' W 118°09'0 0.0
2017-Feb-15 10:31N 33°44' W 118°09'0 0.0
2017-Feb-15 09:31N 33°44' W 118°09'0 0.1
2017-Feb-15 08:22N 33°44' W 118°09'0 0.1
2017-Feb-15 07:31N 33°44' W 118°09'0 0.0
2017-Feb-15 06:28N 33°44' W 118°09'0 0.0
2017-Feb-15 05:31N 33°44' W 118°09'0 0.0
2017-Feb-15 04:25N 33°44' W 118°09'0 0.1
2017-Feb-15 03:31N 33°44' W 118°09'0 0.1
2017-Feb-15 02:31N 33°44' W 118°09'0 0.0
2017-Feb-15 01:31N 33°44' W 118°09'0 0.0
2017-Feb-15 00:31N 33°44' W 118°09'0 0.0
2017-Feb-14 23:31N 33°44' W 118°09'0 0.0
2017-Feb-14 22:28N 33°44' W 118°09'0 0.0
2017-Feb-14 21:31N 33°44' W 118°09'0 0.1
2017-Feb-14 20:31N 33°44' W 118°09'0 0.1
2017-Feb-14 19:31N 33°44' W 118°09'0 0.0
2017-Feb-14 18:31N 33°44' W 118°09'0 0.0
2017-Feb-14 17:31N 33°44' W 118°09'0 0.0
2017-Feb-14 16:31N 33°44' W 118°09'0 0.1
2017-Feb-14 15:31N 33°44' W 118°09'0 0.0
2017-Feb-14 14:31N 33°44' W 118°09'0 0.1
2017-Feb-14 13:31N 33°44' W 118°09'0 0.1
2017-Feb-14 12:31N 33°44' W 118°09'0 0.0
2017-Feb-14 11:31N 33°44' W 118°09'0 0.0
2017-Feb-14 10:31N 33°44' W 118°09'0 0.0
2017-Feb-14 09:31N 33°44' W 118°09'0 0.0
2017-Feb-14 08:31N 33°44' W 118°09'0 0.0
2017-Feb-14 07:31N 33°44' W 118°09'0 0.0
2017-Feb-14 06:28N 33°44' W 118°09'0 0.0
2017-Feb-14 05:31N 33°44' W 118°09'0 0.1
2017-Feb-14 04:31N 33°44' W 118°09'0 0.0
2017-Feb-14 03:28N 33°44' W 118°09'0 0.1
2017-Feb-14 02:31N 33°44' W 118°09'0 0.1
2017-Feb-14 01:31N 33°44' W 118°09'0 0.0
2017-Feb-14 00:31N 33°44' W 118°09'0 0.0
2017-Feb-13 23:31N 33°44' W 118°09'0 0.1
2017-Feb-13 22:31N 33°44' W 118°09'0 0.0
2017-Feb-13 21:31N 33°44' W 118°09'0 0.1
2017-Feb-13 20:31N 33°44' W 118°09'0 0.1
2017-Feb-13 19:31N 33°44' W 118°09'0 0.1
2017-Feb-13 18:31N 33°44' W 118°09'0 0.0
2017-Feb-13 17:31N 33°44' W 118°09'0 0.0
2017-Feb-13 16:31N 33°44' W 118°09'0 0.0
2017-Feb-13 15:31N 33°44' W 118°09'0 0.0
2017-Feb-13 14:31N 33°44' W 118°09'0 0.0
2017-Feb-13 13:31N 33°44' W 118°09'0 0.0
2017-Feb-13 12:31N 33°44' W 118°09'0 0.0
2017-Feb-13 11:31N 33°44' W 118°09'0 0.0
2017-Feb-13 10:28N 33°44' W 118°09'0 0.0
2017-Feb-13 09:31N 33°44' W 118°09'0 0.1
2017-Feb-13 08:22N 33°44' W 118°09'0 0.1
2017-Feb-13 07:28N 33°44' W 118°09'0 0.0
2017-Feb-13 06:31N 33°44' W 118°09'0 0.0
2017-Feb-13 05:31N 33°44' W 118°09'0 0.1
2017-Feb-13 04:28N 33°44' W 118°09'0 0.1
2017-Feb-13 03:31N 33°44' W 118°09'0 0.0
2017-Feb-13 02:31N 33°44' W 118°09'0 0.0
2017-Feb-13 01:31N 33°44' W 118°09'0 0.0
2017-Feb-13 00:31N 33°44' W 118°09'0 0.0
2017-Feb-12 23:31N 33°44' W 118°09'0 0.0
2017-Feb-12 22:31N 33°44' W 118°09'0 0.0
2017-Feb-12 21:31N 33°44' W 118°09'0 0.0
2017-Feb-12 20:31N 33°44' W 118°09'0 0.2
2017-Feb-12 19:31N 33°44' W 118°09'1 0.9
2017-Feb-12 18:34N 33°44' W 118°10'8 7.7
2017-Feb-12 17:33N 33°37' W 118°15'1110.9
2017-Feb-12 16:34N 33°36' W 118°28'9 7.7
2017-Feb-12 15:22N 33°37' W 118°39'5 5.6
2017-Feb-12 14:31N 33°37' W 118°44'24 8.0
2017-Feb-12 11:30N 33°38' W 119°13'9 8.4
2017-Feb-12 10:30N 33°38' W 119°24'18 8.3
2017-Feb-12 08:21N 33°35' W 119°45'7 8.4
2017-Feb-12 07:32N 33°32' W 119°52'  
Track history (hours):
 
Tides and Currents Weather Stations Pressure Air Temp Water Temp Dewpoint Dewpoint Depression Visibility Wind Speed Wind Dir Waves Ship Positions

Empire State

Owner: Crowley Petroleum Services, Jacksonville, FL. More information available from US FCC via Universal Licensing System and Coast Guard Vessel Documentation Center.

Last reported at 2017-Feb-22 03:33 UTC. Time now 2017-Feb-23 18:40 UTC.
Position N 33°38' W 118°20'.

Length 183 m; draft 8.8 m.

Type: Military. MMSI: 367353080.

Date/timePositionNaut miles runAvg speedWind from/ knotsBaromVisibWave heightAir tempDewpointWater temp
2017-Feb-22 03:33N 33°38' W 118°20'8 8.4
2017-Feb-22 02:34N 33°42' W 118°11'2 1.1
2017-Feb-22 00:32N 33°44' W 118°13'0 0.1
2017-Feb-21 23:32N 33°44' W 118°13'0 0.1
2017-Feb-21 22:32N 33°44' W 118°13'0 0.0
2017-Feb-21 21:32N 33°44' W 118°13'0 0.0
2017-Feb-21 20:26N 33°44' W 118°13'0 0.1
2017-Feb-21 19:32N 33°44' W 118°13'0 0.0
2017-Feb-21 18:32N 33°44' W 118°13'0 0.0
2017-Feb-21 17:32N 33°44' W 118°13'0 0.0
2017-Feb-21 16:32N 33°44' W 118°13'0 0.1
2017-Feb-21 15:11N 33°44' W 118°13'0 0.1
2017-Feb-21 14:32N 33°44' W 118°13'0 0.1
2017-Feb-21 12:32N 33°44' W 118°13'0 0.0
2017-Feb-21 11:32N 33°44' W 118°13'0 0.1
2017-Feb-21 10:26N 33°44' W 118°13'0 0.1
2017-Feb-21 09:32N 33°44' W 118°13'0 0.0
2017-Feb-21 08:32N 33°44' W 118°13'0 0.0
2017-Feb-21 07:14N 33°44' W 118°13'0 0.0
2017-Feb-21 06:20N 33°44' W 118°13'0 0.0
2017-Feb-21 03:08N 33°44' W 118°13'0 0.0
2017-Feb-21 01:32N 33°44' W 118°13'0 0.0
2017-Feb-21 00:14N 33°44' W 118°13'0 0.0
2017-Feb-20 12:20N 33°44' W 118°13'0 0.0
2017-Feb-18 23:08N 33°44' W 118°13'0 0.1
2017-Feb-18 22:08N 33°44' W 118°13'0 0.0
2017-Feb-18 21:14N 33°44' W 118°13'0 0.0
2017-Feb-18 19:32N 33°44' W 118°14'0 0.0
2017-Feb-18 14:32N 33°44' W 118°14'0 0.0
2017-Feb-18 09:14N 33°44' W 118°13'0 0.0
2017-Feb-18 08:32N 33°44' W 118°13'0 0.0
2017-Feb-18 06:14N 33°44' W 118°13'0 0.0
2017-Feb-18 05:32N 33°44' W 118°13'1 0.7
2017-Feb-18 04:33N 33°43' W 118°14'3 0.1
2017-Feb-17 02:25N 33°45' W 118°17'2 2.0
2017-Feb-17 01:33N 33°44' W 118°16'6 6.3
2017-Feb-17 00:33N 33°44' W 118°09'0 0.0
2017-Feb-16 23:31N 33°44' W 118°09'0 0.0
2017-Feb-16 22:28N 33°44' W 118°09'0 0.0
2017-Feb-16 21:31N 33°44' W 118°09'0 0.0
2017-Feb-16 20:28N 33°44' W 118°09'0 0.0
2017-Feb-16 19:25N 33°44' W 118°09'0 0.0
2017-Feb-16 18:28N 33°44' W 118°09'0 0.0
2017-Feb-16 17:31N 33°44' W 118°09'0 0.0
2017-Feb-16 16:31N 33°44' W 118°09'0 0.0
2017-Feb-16 15:31N 33°44' W 118°09'0 0.0
2017-Feb-16 14:31N 33°44' W 118°09'0 0.0
2017-Feb-16 13:31N 33°44' W 118°09'0 0.0
2017-Feb-16 12:31N 33°44' W 118°09'0 0.0
2017-Feb-16 11:31N 33°44' W 118°09'0 0.0
2017-Feb-16 10:25N 33°44' W 118°09'0 0.0
2017-Feb-16 09:31N 33°44' W 118°09'0 0.0
2017-Feb-16 08:31N 33°44' W 118°09'0 0.0
2017-Feb-16 07:31N 33°44' W 118°09'0 0.0
2017-Feb-16 06:31N 33°44' W 118°09'0 0.0
2017-Feb-16 05:31N 33°44' W 118°09'0 0.0
2017-Feb-16 04:31N 33°44' W 118°09'0 0.0
2017-Feb-16 03:31N 33°44' W 118°09'0 0.0
2017-Feb-16 02:31N 33°44' W 118°09'0 0.0
2017-Feb-16 01:31N 33°44' W 118°09'0 0.0
2017-Feb-16 00:31N 33°44' W 118°09'0 0.0
2017-Feb-15 23:31N 33°44' W 118°09'0 0.0
2017-Feb-15 22:31N 33°44' W 118°09'0 0.0
2017-Feb-15 21:31N 33°44' W 118°09'0 0.1
2017-Feb-15 20:31N 33°44' W 118°09'0 0.0
2017-Feb-15 19:25N 33°44' W 118°09'0 0.1
2017-Feb-15 18:28N 33°44' W 118°09'0 0.2
2017-Feb-15 17:31N 33°44' W 118°09'0 0.0
2017-Feb-15 16:31N 33°44' W 118°09'0 0.1
2017-Feb-15 15:31N 33°44' W 118°09'0 0.0
2017-Feb-15 14:31N 33°44' W 118°09'0 0.0
2017-Feb-15 13:31N 33°44' W 118°09'0 0.0
2017-Feb-15 12:31N 33°44' W 118°09'0 0.0
2017-Feb-15 11:31N 33°44' W 118°09'0 0.0
2017-Feb-15 10:31N 33°44' W 118°09'0 0.0
2017-Feb-15 09:31N 33°44' W 118°09'0 0.1
2017-Feb-15 08:22N 33°44' W 118°09'0 0.1
2017-Feb-15 07:31N 33°44' W 118°09'0 0.0
2017-Feb-15 06:28N 33°44' W 118°09'0 0.0
2017-Feb-15 05:31N 33°44' W 118°09'0 0.0
2017-Feb-15 04:25N 33°44' W 118°09'0 0.1
2017-Feb-15 03:31N 33°44' W 118°09'0 0.1
2017-Feb-15 02:31N 33°44' W 118°09'0 0.0
2017-Feb-15 01:31N 33°44' W 118°09'0 0.0
2017-Feb-15 00:31N 33°44' W 118°09'0 0.0
2017-Feb-14 23:31N 33°44' W 118°09'0 0.0
2017-Feb-14 22:28N 33°44' W 118°09'0 0.0
2017-Feb-14 21:31N 33°44' W 118°09'0 0.1
2017-Feb-14 20:31N 33°44' W 118°09'0 0.1
2017-Feb-14 19:31N 33°44' W 118°09'0 0.0
2017-Feb-14 18:31N 33°44' W 118°09'0 0.0
2017-Feb-14 17:31N 33°44' W 118°09'0 0.0
2017-Feb-14 16:31N 33°44' W 118°09'0 0.1
2017-Feb-14 15:31N 33°44' W 118°09'0 0.0
2017-Feb-14 14:31N 33°44' W 118°09'0 0.1
2017-Feb-14 13:31N 33°44' W 118°09'0 0.1
2017-Feb-14 12:31N 33°44' W 118°09'0 0.0
2017-Feb-14 11:31N 33°44' W 118°09'0 0.0
2017-Feb-14 10:31N 33°44' W 118°09'0 0.0
2017-Feb-14 09:31N 33°44' W 118°09'0 0.0
2017-Feb-14 08:31N 33°44' W 118°09'0 0.0
2017-Feb-14 07:31N 33°44' W 118°09'0 0.0
2017-Feb-14 06:28N 33°44' W 118°09'0 0.0
2017-Feb-14 05:31N 33°44' W 118°09'0 0.1
2017-Feb-14 04:31N 33°44' W 118°09'0 0.0
2017-Feb-14 03:28N 33°44' W 118°09'0 0.1
2017-Feb-14 02:31N 33°44' W 118°09'0 0.1
2017-Feb-14 01:31N 33°44' W 118°09'0 0.0
2017-Feb-14 00:31N 33°44' W 118°09'0 0.0
2017-Feb-13 23:31N 33°44' W 118°09'0 0.1
2017-Feb-13 22:31N 33°44' W 118°09'0 0.0
2017-Feb-13 21:31N 33°44' W 118°09'0 0.1
2017-Feb-13 20:31N 33°44' W 118°09'0 0.1
2017-Feb-13 19:31N 33°44' W 118°09'0 0.1
2017-Feb-13 18:31N 33°44' W 118°09'0 0.0
2017-Feb-13 17:31N 33°44' W 118°09'0 0.0
2017-Feb-13 16:31N 33°44' W 118°09'0 0.0
2017-Feb-13 15:31N 33°44' W 118°09'0 0.0
2017-Feb-13 14:31N 33°44' W 118°09'0 0.0
2017-Feb-13 13:31N 33°44' W 118°09'0 0.0
2017-Feb-13 12:31N 33°44' W 118°09'0 0.0
2017-Feb-13 11:31N 33°44' W 118°09'0 0.0
2017-Feb-13 10:28N 33°44' W 118°09'0 0.0
2017-Feb-13 09:31N 33°44' W 118°09'0 0.1
2017-Feb-13 08:22N 33°44' W 118°09'0 0.1
2017-Feb-13 07:28N 33°44' W 118°09'0 0.0
2017-Feb-13 06:31N 33°44' W 118°09'0 0.0
2017-Feb-13 05:31N 33°44' W 118°09'0 0.1
2017-Feb-13 04:28N 33°44' W 118°09'0 0.1
2017-Feb-13 03:31N 33°44' W 118°09'0 0.0
2017-Feb-13 02:31N 33°44' W 118°09'0 0.0
2017-Feb-13 01:31N 33°44' W 118°09'0 0.0
2017-Feb-13 00:31N 33°44' W 118°09'0 0.0
2017-Feb-12 23:31N 33°44' W 118°09'0 0.0
2017-Feb-12 22:31N 33°44' W 118°09'0 0.0
2017-Feb-12 21:31N 33°44' W 118°09'0 0.0
2017-Feb-12 20:31N 33°44' W 118°09'0 0.2
2017-Feb-12 19:31N 33°44' W 118°09'1 0.9
2017-Feb-12 18:34N 33°44' W 118°10'8 7.7
2017-Feb-12 17:33N 33°37' W 118°15'1110.9
2017-Feb-12 16:34N 33°36' W 118°28'9 7.7
2017-Feb-12 15:22N 33°37' W 118°39'5 5.6
2017-Feb-12 14:31N 33°37' W 118°44'24 8.0
2017-Feb-12 11:30N 33°38' W 119°13'9 8.4
2017-Feb-12 10:30N 33°38' W 119°24'18 8.3
2017-Feb-12 08:21N 33°35' W 119°45'7 8.4
2017-Feb-12 07:32N 33°32' W 119°52'  

Dump ship's entire track history